Time;durP1;ratioP1;P1;durP2;ratioP2;P2;SDS_P1;SDS_P2;PMS_P1;PMS_P2;Temp;Humidity;BMP_temperature;BMP_pressure;BME280_temperature;BME280_humidity;BME280_pressure;Samples;Min_cycle;Max_cycle;Signal;HPM_P1;HPM_P2
2023/06/22 00:01:14;;;;;;;11.55;4.45;;;20.70;87.30;;;;;;4972933;28;20239;-87
2023/06/22 00:03:41;;;;;;;9.85;4.35;;;20.70;87.10;;;;;;4950220;28;20220;-87
2023/06/22 00:06:08;;;;;;;6.30;4.47;;;20.70;87.50;;;;;;4968055;28;20220;-87
2023/06/22 00:08:36;;;;;;;9.88;4.57;;;20.70;86.60;;;;;;4953832;28;20346;-87
2023/06/22 00:11:03;;;;;;;7.43;4.10;;;20.70;86.20;;;;;;4964368;28;20205;-87
2023/06/22 00:13:30;;;;;;;8.52;4.28;;;20.70;85.50;;;;;;4970981;28;20208;-87
2023/06/22 00:15:57;;;;;;;7.22;4.55;;;20.70;85.10;;;;;;4968290;28;20197;-87
2023/06/22 00:18:27;;;;;;;7.50;4.07;;;20.70;85.40;;;;;;4964342;28;20225;-87
2023/06/22 00:20:57;;;;;;;6.75;4.05;;;20.70;85.90;;;;;;4936603;28;20201;-87
2023/06/22 00:23:24;;;;;;;8.75;4.72;;;20.60;85.90;;;;;;4946743;28;20221;-87
2023/06/22 00:25:53;;;;;;;9.07;4.15;;;20.60;86.00;;;;;;4974821;28;20271;-87
2023/06/22 00:28:20;;;;;;;7.13;4.22;;;20.60;86.10;;;;;;4970232;28;20203;-87
2023/06/22 00:30:49;;;;;;;8.25;4.35;;;20.60;86.60;;;;;;4968497;28;20213;-87
2023/06/22 00:33:16;;;;;;;8.07;4.15;;;20.50;86.10;;;;;;4970857;28;20221;-87
2023/06/22 00:35:43;;;;;;;7.53;4.55;;;20.50;86.70;;;;;;4971757;28;20641;-87
2023/06/22 00:38:09;;;;;;;9.32;4.38;;;20.50;86.70;;;;;;4973783;28;20197;-87
2023/06/22 00:40:37;;;;;;;8.00;4.20;;;20.50;86.00;;;;;;4967266;28;20205;-87
2023/06/22 00:43:05;;;;;;;8.52;4.38;;;20.50;85.60;;;;;;4969985;28;20270;-86
2023/06/22 00:45:32;;;;;;;9.90;4.57;;;20.50;85.70;;;;;;4970273;28;20640;-87
2023/06/22 00:47:59;;;;;;;7.65;3.95;;;20.40;86.20;;;;;;4970591;28;20674;-87
2023/06/22 00:50:28;;;;;;;7.32;4.43;;;20.40;87.40;;;;;;4970158;28;20208;-87
2023/06/22 00:52:58;;;;;;;9.13;4.22;;;20.40;87.00;;;;;;4968102;28;20200;-87
2023/06/22 00:55:26;;;;;;;7.88;4.57;;;20.30;87.00;;;;;;4967990;28;20200;-87
2023/06/22 00:57:55;;;;;;;7.90;4.50;;;20.20;87.50;;;;;;4962724;28;21372;-87
2023/06/22 01:00:25;;;;;;;7.10;4.50;;;20.20;88.50;;;;;;4966175;28;20208;-87
2023/06/22 01:02:52;;;;;;;6.45;4.32;;;20.10;88.80;;;;;;4962840;28;20256;-88
2023/06/22 01:05:20;;;;;;;6.15;4.22;;;20.10;89.10;;;;;;4964862;28;20220;-87
2023/06/22 01:07:58;;;;;;;11.18;4.80;;;20.10;89.60;;;;;;4952813;28;20204;-87
2023/06/22 01:10:30;;;;;;;6.93;4.43;;;20.10;89.50;;;;;;4969952;28;20200;-87
2023/06/22 01:13:02;;;;;;;5.78;4.28;;;20.00;89.40;;;;;;4969297;28;20192;-87
2023/06/22 01:15:34;;;;;;;7.97;4.80;;;20.00;88.80;;;;;;4970466;28;20212;-87
2023/06/22 01:18:05;;;;;;;9.80;4.15;;;20.00;89.50;;;;;;4958889;28;20232;-87
2023/06/22 01:20:34;;;;;;;9.60;4.82;;;19.90;90.40;;;;;;4965157;28;20222;-87
2023/06/22 01:23:09;;;;;;;7.75;4.60;;;19.90;90.20;;;;;;4954153;28;20751;-87
2023/06/22 01:25:45;;;;;;;7.10;4.78;;;19.90;90.30;;;;;;4963688;28;20227;-87
2023/06/22 01:28:23;;;;;;;9.50;4.82;;;19.80;90.50;;;;;;4965716;28;20700;-87
2023/06/22 01:31:05;;;;;;;10.00;4.68;;;19.80;90.50;;;;;;4964784;28;20208;-87
2023/06/22 01:33:35;;;;;;;11.57;5.07;;;19.80;90.50;;;;;;4965379;28;20209;-88
2023/06/22 01:36:02;;;;;;;6.93;4.57;;;19.70;90.60;;;;;;4968180;28;20670;-87
2023/06/22 01:38:31;;;;;;;10.90;4.55;;;19.70;90.80;;;;;;4967530;28;20207;-87
2023/06/22 01:40:58;;;;;;;7.95;4.40;;;19.60;91.10;;;;;;4949803;28;20228;-87
2023/06/22 01:43:27;;;;;;;9.10;5.30;;;19.60;91.40;;;;;;4965351;28;20669;-87
2023/06/22 01:45:56;;;;;;;10.55;5.10;;;19.60;91.30;;;;;;4955592;28;20228;-88
2023/06/22 01:48:25;;;;;;;8.77;5.05;;;19.60;91.30;;;;;;4968986;28;20208;-87
2023/06/22 01:50:53;;;;;;;13.18;4.68;;;19.60;91.20;;;;;;4966125;28;20200;-87
2023/06/22 01:53:21;;;;;;;9.02;4.97;;;19.60;91.30;;;;;;4951123;28;20800;-87
2023/06/22 01:55:48;;;;;;;7.18;4.78;;;19.60;91.50;;;;;;4946393;28;20255;-87
2023/06/22 01:58:16;;;;;;;11.10;4.85;;;19.50;91.70;;;;;;4959908;28;20268;-87
2023/06/22 02:00:57;;;;;;;9.77;5.10;;;19.40;91.80;;;;;;4965920;28;20205;-87
2023/06/22 02:03:29;;;;;;;10.68;5.00;;;19.40;91.90;;;;;;4969056;28;20247;-87
2023/06/22 02:06:03;;;;;;;6.45;4.57;;;19.40;92.10;;;;;;4948351;28;20232;-87
2023/06/22 02:08:36;;;;;;;8.88;5.28;;;19.40;92.50;;;;;;4952062;28;20293;-88
2023/06/22 02:11:04;;;;;;;9.05;5.15;;;19.30;92.50;;;;;;4942666;28;20240;-88
2023/06/22 02:13:33;;;;;;;10.52;6.00;;;19.30;92.50;;;;;;4963907;28;20606;-87
2023/06/22 02:16:01;;;;;;;7.38;4.70;;;19.30;92.50;;;;;;4962808;28;20264;-87
2023/06/22 02:18:28;;;;;;;9.88;5.15;;;19.30;92.50;;;;;;4963407;28;20228;-87
2023/06/22 02:20:55;;;;;;;11.15;5.80;;;19.30;92.50;;;;;;4969154;28;20214;-88
2023/06/22 02:23:22;;;;;;;10.65;5.72;;;19.30;92.80;;;;;;4944570;28;20271;-87
2023/06/22 02:25:49;;;;;;;12.25;5.72;;;19.30;92.90;;;;;;4965190;28;20667;-87
2023/06/22 02:28:16;;;;;;;7.72;5.50;;;19.30;93.00;;;;;;4966642;28;20198;-88
2023/06/22 02:30:43;;;;;;;13.43;5.75;;;19.40;92.70;;;;;;4952915;28;20251;-87
2023/06/22 02:33:11;;;;;;;8.18;5.32;;;19.40;92.50;;;;;;4969042;28;20806;-87
2023/06/22 02:35:39;;;;;;;10.45;5.60;;;19.40;92.50;;;;;;4962993;28;20212;-87
2023/06/22 02:38:06;;;;;;;9.88;5.25;;;19.40;92.50;;;;;;4962433;28;20645;-88
2023/06/22 02:40:33;;;;;;;9.15;5.28;;;19.30;92.50;;;;;;4952315;28;20204;-87
2023/06/22 02:43:02;;;;;;;9.40;5.65;;;19.30;92.50;;;;;;4966204;28;20869;-88
2023/06/22 02:45:29;;;;;;;11.25;5.20;;;19.30;92.50;;;;;;4968508;28;20660;-87
2023/06/22 02:47:56;;;;;;;11.05;5.68;;;19.30;92.60;;;;;;4961704;28;20201;-87
2023/06/22 02:50:25;;;;;;;9.88;4.95;;;19.20;92.60;;;;;;4952840;28;20205;-88
2023/06/22 02:52:52;;;;;;;10.20;5.38;;;19.20;92.70;;;;;;4971066;28;20204;-87
2023/06/22 02:55:18;;;;;;;7.82;5.50;;;19.20;92.50;;;;;;4967056;28;20204;-88
2023/06/22 02:57:47;;;;;;;8.30;4.93;;;19.20;92.50;;;;;;4960734;28;20194;-87
2023/06/22 03:00:17;;;;;;;11.55;5.50;;;19.20;92.50;;;;;;4962207;28;20224;-87
2023/06/22 03:02:45;;;;;;;10.18;5.43;;;19.20;92.90;;;;;;4971281;28;20209;-87
2023/06/22 03:05:13;;;;;;;9.20;5.70;;;19.20;92.70;;;;;;4962487;28;20228;-87
2023/06/22 03:07:42;;;;;;;9.45;5.28;;;19.10;92.70;;;;;;4935611;28;20604;-87
2023/06/22 03:10:10;;;;;;;9.27;5.47;;;19.10;92.70;;;;;;4967770;28;20235;-88
2023/06/22 03:12:37;;;;;;;8.88;5.15;;;19.10;92.40;;;;;;4960138;28;20205;-88
2023/06/22 03:15:06;;;;;;;10.57;5.80;;;19.10;92.40;;;;;;4967109;28;20200;-87
2023/06/22 03:17:33;;;;;;;10.13;5.43;;;19.10;92.70;;;;;;4957313;28;20588;-88
2023/06/22 03:20:00;;;;;;;9.60;5.50;;;19.10;92.70;;;;;;4968946;28;20200;-87
2023/06/22 03:22:27;;;;;;;11.65;5.97;;;19.10;92.80;;;;;;4952058;28;20205;-87
2023/06/22 03:24:55;;;;;;;9.77;5.72;;;19.10;92.70;;;;;;4953620;28;20263;-88
2023/06/22 03:27:22;;;;;;;8.65;5.30;;;19.00;92.90;;;;;;4967023;28;20301;-88
2023/06/22 03:29:49;;;;;;;13.65;5.65;;;19.00;93.00;;;;;;4967418;28;20208;-87
2023/06/22 03:32:16;;;;;;;10.73;5.38;;;19.00;93.00;;;;;;4954579;28;20207;-88
2023/06/22 03:34:46;;;;;;;12.48;5.82;;;19.00;93.00;;;;;;4966765;28;20201;-87
2023/06/22 03:37:14;;;;;;;10.90;5.90;;;19.00;93.10;;;;;;4938418;28;20207;-87
2023/06/22 03:39:41;;;;;;;11.27;6.00;;;19.00;93.20;;;;;;4971811;28;20216;-88
2023/06/22 03:42:09;;;;;;;10.27;6.00;;;19.00;93.30;;;;;;4962049;28;20209;-88
2023/06/22 03:44:37;;;;;;;12.32;6.00;;;19.00;93.40;;;;;;4973393;28;20192;-88
2023/06/22 03:47:07;;;;;;;9.95;6.05;;;19.00;93.50;;;;;;4955235;28;20231;-87
2023/06/22 03:49:33;;;;;;;10.18;6.32;;;19.00;93.60;;;;;;4955513;28;21123;-88
2023/06/22 03:52:01;;;;;;;13.30;6.63;;;19.00;93.50;;;;;;4957408;28;20567;-88
2023/06/22 03:54:28;;;;;;;9.48;6.15;;;19.00;93.50;;;;;;4923357;28;20295;-88
2023/06/22 03:56:55;;;;;;;10.88;6.25;;;19.00;93.50;;;;;;4966454;28;20212;-88
2023/06/22 03:59:24;;;;;;;8.32;5.95;;;19.00;93.60;;;;;;4966064;28;20446;-87
2023/06/22 04:01:51;;;;;;;11.65;6.35;;;19.10;93.60;;;;;;4971372;28;20562;-87
2023/06/22 04:04:19;;;;;;;13.77;6.68;;;19.10;93.50;;;;;;4948139;28;20219;-88
2023/06/22 04:06:46;;;;;;;15.10;6.90;;;19.20;93.10;;;;;;4969396;28;20227;-87
2023/06/22 04:09:13;;;;;;;10.60;6.53;;;19.20;93.10;;;;;;4955794;28;20212;-87
2023/06/22 04:11:40;;;;;;;11.20;6.60;;;19.20;93.00;;;;;;4970635;28;20204;-87
2023/06/22 04:14:07;;;;;;;12.85;6.80;;;19.20;92.90;;;;;;4971275;28;20201;-88
2023/06/22 04:16:35;;;;;;;14.90;6.47;;;19.30;93.20;;;;;;4969063;28;20201;-87
2023/06/22 04:19:03;;;;;;;11.00;6.60;;;19.40;92.90;;;;;;4950236;28;20267;-87
2023/06/22 04:21:29;;;;;;;14.30;6.75;;;19.40;92.80;;;;;;4974321;28;20677;-85
2023/06/22 04:23:56;;;;;;;10.32;6.63;;;19.50;93.20;;;;;;4972199;28;20207;-84
2023/06/22 04:26:23;;;;;;;11.52;6.68;;;19.50;93.20;;;;;;4969337;28;20235;-83
2023/06/22 04:28:55;;;;;;;10.10;6.32;;;19.50;92.50;;;;;;4945794;28;20209;-83
2023/06/22 04:31:31;;;;;;;15.55;7.00;;;19.60;92.60;;;;;;4962785;28;20287;-83
2023/06/22 04:34:05;;;;;;;9.05;6.50;;;19.60;92.50;;;;;;4961756;28;20212;-84
2023/06/22 04:36:37;;;;;;;10.48;6.05;;;19.70;92.60;;;;;;4962712;28;20701;-88
2023/06/22 04:39:05;;;;;;;10.52;6.68;;;19.90;92.30;;;;;;4962539;28;20248;-84
2023/06/22 04:41:41;;;;;;;9.65;6.97;;;20.00;92.00;;;;;;4966052;28;20205;-84
2023/06/22 04:44:09;;;;;;;13.05;7.07;;;20.10;91.40;;;;;;4944490;28;20215;-90
2023/06/22 04:46:37;;;;;;;13.00;7.20;;;20.20;91.20;;;;;;4971304;28;20230;-89
2023/06/22 04:49:10;;;;;;;11.40;6.65;;;20.10;91.60;;;;;;4949933;28;21464;-88
2023/06/22 04:51:41;;;;;;;11.38;6.60;;;20.10;91.80;;;;;;4969643;28;20675;-87
2023/06/22 04:54:09;;;;;;;8.55;6.45;;;20.20;91.70;;;;;;4954606;28;20213;-88
2023/06/22 04:56:36;;;;;;;12.43;6.75;;;20.30;91.10;;;;;;4962734;28;20204;-90
2023/06/22 04:59:04;;;;;;;13.60;7.15;;;20.40;90.80;;;;;;4969044;28;20204;-86
2023/06/22 05:01:32;;;;;;;11.93;6.70;;;20.40;90.80;;;;;;4961302;28;20239;-82
2023/06/22 05:04:00;;;;;;;13.57;7.05;;;20.40;90.90;;;;;;4966774;28;20207;-83
2023/06/22 05:06:29;;;;;;;13.90;7.15;;;20.50;90.70;;;;;;4968687;28;20225;-87
2023/06/22 05:08:58;;;;;;;11.02;7.10;;;20.50;91.00;;;;;;4963242;28;20285;-87
2023/06/22 05:11:25;;;;;;;15.25;7.18;;;20.60;90.90;;;;;;4969373;28;20560;-85
2023/06/22 05:13:52;;;;;;;11.13;6.85;;;20.60;90.90;;;;;;4960686;28;20197;-85
2023/06/22 05:16:23;;;;;;;14.68;6.93;;;20.80;90.30;;;;;;4969789;28;20212;-87
2023/06/22 05:18:51;;;;;;;15.07;7.43;;;20.90;89.50;;;;;;4972845;28;20229;-89
2023/06/22 05:21:18;;;;;;;14.07;8.05;;;20.90;90.00;;;;;;4968171;28;20209;-91
2023/06/22 05:23:47;;;;;;;13.25;7.38;;;20.80;90.20;;;;;;4952208;28;20548;-86
2023/06/22 05:26:14;;;;;;;16.88;7.72;;;20.80;90.50;;;;;;4969037;28;20235;-82
2023/06/22 05:28:41;;;;;;;13.98;7.35;;;20.80;90.40;;;;;;4945322;28;20578;-84
2023/06/22 05:31:08;;;;;;;15.88;7.97;;;21.10;89.90;;;;;;4959673;28;20193;-87
2023/06/22 05:33:36;;;;;;;12.70;7.82;;;21.20;88.90;;;;;;4963108;28;20223;-84
2023/06/22 05:36:03;;;;;;;14.77;7.63;;;21.40;87.90;;;;;;4948908;28;20202;-86
2023/06/22 05:38:30;;;;;;;17.17;7.63;;;21.50;87.60;;;;;;4964846;28;20685;-89
2023/06/22 05:40:58;;;;;;;12.10;7.55;;;21.70;85.60;;;;;;4966388;28;20216;-87
2023/06/22 05:43:25;;;;;;;14.23;7.47;;;22.00;84.70;;;;;;4949797;28;20212;-87
2023/06/22 05:45:52;;;;;;;14.88;8.32;;;22.20;82.40;;;;;;4963361;28;20228;-86
2023/06/22 05:48:19;;;;;;;11.40;7.25;;;22.40;81.10;;;;;;4949362;28;20670;-87
2023/06/22 05:50:46;;;;;;;16.73;6.97;;;22.70;79.60;;;;;;4965702;28;20678;-87
2023/06/22 05:53:13;;;;;;;12.90;7.57;;;23.00;75.70;;;;;;4972953;28;20707;-87
2023/06/22 05:55:40;;;;;;;14.65;7.43;;;23.30;71.50;;;;;;4954582;28;20213;-86
2023/06/22 05:58:08;;;;;;;12.63;7.75;;;23.40;70.30;;;;;;4971364;28;20204;-86
2023/06/22 06:00:36;;;;;;;13.93;7.18;;;23.40;68.00;;;;;;4968162;28;20645;-86
2023/06/22 06:03:03;;;;;;;19.15;7.22;;;23.40;68.00;;;;;;4953550;28;20208;-85
2023/06/22 06:05:31;;;;;;;15.45;7.15;;;23.20;71.60;;;;;;4968905;28;20236;-87
2023/06/22 06:07:58;;;;;;;11.38;7.18;;;23.10;71.50;;;;;;4965838;28;20240;-87
2023/06/22 06:10:25;;;;;;;15.35;7.40;;;22.60;74.10;;;;;;4951985;28;20669;-87
2023/06/22 06:12:52;;;;;;;16.95;7.63;;;22.60;77.00;;;;;;4961564;28;20677;-87
2023/06/22 06:15:20;;;;;;;14.32;7.28;;;22.70;75.10;;;;;;4935395;28;20211;-86
2023/06/22 06:17:48;;;;;;;15.43;6.90;;;22.80;74.90;;;;;;4968819;28;20724;-88
2023/06/22 06:20:15;;;;;;;12.18;7.13;;;22.70;76.90;;;;;;4968164;28;20201;-87
2023/06/22 06:22:42;;;;;;;12.57;7.30;;;22.80;75.40;;;;;;4950770;28;20205;-87
2023/06/22 06:25:15;;;;;;;13.00;6.90;;;22.90;75.00;;;;;;4963713;28;20197;-87
2023/06/22 06:27:42;;;;;;;12.35;6.90;;;22.90;75.20;;;;;;4966409;28;20231;-86
2023/06/22 06:30:11;;;;;;;11.52;7.20;;;23.00;74.40;;;;;;4966034;28;20212;-87
2023/06/22 06:32:39;;;;;;;12.90;7.13;;;23.00;74.90;;;;;;4949854;28;20209;-86
2023/06/22 06:35:07;;;;;;;12.13;6.90;;;23.20;72.20;;;;;;4951739;28;20560;-86
2023/06/22 06:37:37;;;;;;;18.25;7.88;;;23.30;71.10;;;;;;4968285;28;20211;-87
2023/06/22 06:40:06;;;;;;;14.88;7.25;;;23.30;70.10;;;;;;4969180;28;20219;-87
2023/06/22 06:42:33;;;;;;;15.68;7.90;;;23.50;68.30;;;;;;4950264;28;20695;-86
2023/06/22 06:45:01;;;;;;;14.63;6.93;;;23.50;68.50;;;;;;4970454;28;20661;-87
2023/06/22 06:47:28;;;;;;;17.15;7.57;;;23.60;68.40;;;;;;4950425;28;20212;-87
2023/06/22 06:49:56;;;;;;;13.15;7.85;;;23.80;64.30;;;;;;4959991;28;20637;-86
2023/06/22 06:52:23;;;;;;;16.38;8.07;;;23.80;63.70;;;;;;4964032;28;20208;-86
2023/06/22 06:54:51;;;;;;;13.38;8.02;;;23.80;65.70;;;;;;4963978;28;20200;-86
2023/06/22 06:57:20;;;;;;;17.35;7.68;;;24.00;63.50;;;;;;4962414;28;20248;-86
2023/06/22 06:59:47;;;;;;;11.27;7.07;;;24.00;63.80;;;;;;4970568;28;20680;-86
2023/06/22 07:02:14;;;;;;;14.68;8.07;;;24.10;62.50;;;;;;4974390;28;20658;-87
2023/06/22 07:04:41;;;;;;;13.55;7.25;;;24.30;59.80;;;;;;4972210;28;20211;-86
2023/06/22 07:07:09;;;;;;;12.45;7.45;;;24.40;59.90;;;;;;4952075;28;20255;-87
2023/06/22 07:09:36;;;;;;;11.52;7.07;;;24.50;59.90;;;;;;4965111;28;20201;-87
2023/06/22 07:12:04;;;;;;;13.27;7.78;;;24.90;57.60;;;;;;4971991;28;20267;-88
2023/06/22 07:14:31;;;;;;;13.63;7.63;;;25.50;51.20;;;;;;4971951;28;20196;-84
2023/06/22 07:16:58;;;;;;;15.70;7.68;;;26.10;45.20;;;;;;4966728;28;20216;-85
2023/06/22 07:19:29;;;;;;;13.25;7.50;;;26.40;42.40;;;;;;4969413;28;20232;-85
2023/06/22 07:21:56;;;;;;;12.70;7.28;;;26.50;41.40;;;;;;4947104;28;20559;-84
2023/06/22 07:24:25;;;;;;;15.50;7.40;;;26.90;37.40;;;;;;4969651;28;20741;-85
2023/06/22 07:26:52;;;;;;;13.98;8.30;;;26.90;37.60;;;;;;4968042;28;20239;-86
2023/06/22 07:29:20;;;;;;;15.25;7.43;;;27.00;37.60;;;;;;4971145;28;20212;-85
2023/06/22 07:31:46;;;;;;;19.58;10.50;;;26.80;37.40;;;;;;4968343;28;20192;-86
2023/06/22 07:34:13;;;;;;;14.38;7.80;;;26.40;37.20;;;;;;4967923;28;20570;-85
2023/06/22 07:36:41;;;;;;;17.00;7.70;;;26.30;40.90;;;;;;4969147;28;20196;-83
2023/06/22 07:39:07;;;;;;;13.07;7.53;;;26.20;41.50;;;;;;4951577;28;20197;-86
2023/06/22 07:41:36;;;;;;;15.38;7.82;;;26.30;41.30;;;;;;4968409;28;20209;-86
2023/06/22 07:44:03;;;;;;;15.95;8.05;;;26.30;42.50;;;;;;4971661;28;20197;-85
2023/06/22 07:46:30;;;;;;;15.68;7.00;;;26.30;41.90;;;;;;4971630;28;20697;-85
2023/06/22 07:48:58;;;;;;;12.95;7.65;;;26.30;40.30;;;;;;4963818;28;20539;-84
2023/06/22 07:51:25;;;;;;;14.80;7.45;;;26.40;40.90;;;;;;4936150;28;20370;-85
2023/06/22 07:53:51;;;;;;;17.75;7.35;;;26.40;40.40;;;;;;4972337;28;20981;-84
2023/06/22 07:56:19;;;;;;;19.13;8.40;;;26.50;40.50;;;;;;4953228;28;20254;-85
2023/06/22 07:58:48;;;;;;;15.43;7.45;;;27.00;37.50;;;;;;4972378;28;20200;-85
2023/06/22 08:01:16;;;;;;;14.57;7.20;;;27.20;36.10;;;;;;4968264;28;20668;-85
2023/06/22 08:03:43;;;;;;;13.05;7.22;;;27.50;33.90;;;;;;4955431;28;20214;-85
2023/06/22 08:06:10;;;;;;;15.38;7.38;;;27.70;33.80;;;;;;4968265;28;20208;-85
2023/06/22 08:08:37;;;;;;;13.55;7.40;;;27.80;33.00;;;;;;4970096;28;20585;-86
2023/06/22 08:11:05;;;;;;;15.93;7.10;;;27.80;33.30;;;;;;4955053;28;20209;-87
2023/06/22 08:13:32;;;;;;;16.27;7.72;;;28.00;31.80;;;;;;4972214;28;20583;-87
2023/06/22 08:16:00;;;;;;;15.38;7.57;;;28.30;31.20;;;;;;4967001;28;20582;-86
2023/06/22 08:18:27;;;;;;;15.25;7.07;;;28.60;29.50;;;;;;4973934;28;20255;-87
2023/06/22 08:20:54;;;;;;;13.15;7.10;;;29.40;25.90;;;;;;4953792;28;20200;-87
2023/06/22 08:23:21;;;;;;;12.52;6.97;;;30.80;20.90;;;;;;4965703;28;20204;-86
2023/06/22 08:25:50;;;;;;;16.02;7.95;;;31.70;18.80;;;;;;4939770;28;20201;-87
2023/06/22 08:28:17;;;;;;;14.77;7.95;;;33.10;16.90;;;;;;4970945;28;20299;-88
2023/06/22 08:30:43;;;;;;;15.10;7.60;;;34.30;13.60;;;;;;4968866;28;20204;-89
2023/06/22 08:33:12;;;;;;;16.48;7.97;;;35.40;10.80;;;;;;4973215;28;20243;-88
2023/06/22 08:35:39;;;;;;;11.80;7.57;;;35.20;10.30;;;;;;4954913;28;20564;-88
2023/06/22 08:38:07;;;;;;;18.65;7.70;;;34.70;11.70;;;;;;4956189;28;20228;-87
2023/06/22 08:40:34;;;;;;;17.55;8.30;;;34.80;10.90;;;;;;4944804;28;20193;-88
2023/06/22 08:43:01;;;;;;;16.23;8.27;;;34.00;12.10;;;;;;4963324;28;20216;-88
2023/06/22 08:45:28;;;;;;;21.33;8.73;;;33.40;12.80;;;;;;4947528;28;20201;-88
2023/06/22 08:47:55;;;;;;;16.42;8.13;;;32.90;14.10;;;;;;4962077;28;20228;-89
2023/06/22 08:50:23;;;;;;;12.95;7.55;;;32.40;15.60;;;;;;4949423;28;20205;-88
2023/06/22 08:52:50;;;;;;;14.85;7.78;;;32.30;15.30;;;;;;4972705;28;20197;-87
2023/06/22 08:55:17;;;;;;;17.08;8.02;;;32.30;15.10;;;;;;4956569;28;20665;-87
2023/06/22 08:57:43;;;;;;;13.00;7.90;;;32.90;13.80;;;;;;4967681;28;20212;-86
2023/06/22 09:00:17;;;;;;;16.35;7.65;;;33.30;13.70;;;;;;4973100;28;20733;-91
2023/06/22 09:02:44;;;;;;;23.17;8.23;;;33.40;13.00;;;;;;4964079;28;20216;-88
2023/06/22 09:05:11;;;;;;;16.92;8.10;;;34.10;12.00;;;;;;4961652;28;20283;-88
2023/06/22 09:07:39;;;;;;;15.13;7.75;;;34.30;11.50;;;;;;4958911;28;20253;-87
2023/06/22 09:10:07;;;;;;;16.00;7.90;;;35.00;9.90;;;;;;4970808;28;20586;-87
2023/06/22 09:12:37;;;;;;;13.38;7.80;;;35.90;8.70;;;;;;4958651;28;20276;-88
2023/06/22 09:15:07;;;;;;;14.48;8.55;;;36.10;8.30;;;;;;4953941;28;20206;-89
2023/06/22 09:17:35;;;;;;;15.85;8.50;;;36.30;7.80;;;;;;4952131;29;20224;-88
2023/06/22 09:20:05;;;;;;;15.07;7.97;;;35.60;9.30;;;;;;4968741;28;20249;-89
2023/06/22 09:22:33;;;;;;;17.15;8.15;;;35.20;10.10;;;;;;4946106;28;20842;-88
2023/06/22 09:25:03;;;;;;;14.13;7.85;;;35.30;10.00;;;;;;4948743;28;20208;-88
2023/06/22 09:27:31;;;;;;;15.80;7.68;;;35.40;9.70;;;;;;4965680;28;21978;-88
2023/06/22 09:29:58;;;;;;;19.40;8.32;;;35.90;8.60;;;;;;4940050;28;20207;-88
2023/06/22 09:32:25;;;;;;;13.23;7.30;;;35.70;9.60;;;;;;4937257;28;20299;-89
2023/06/22 09:34:53;;;;;;;18.92;7.68;;;35.80;9.70;;;;;;4955212;28;20212;-86
2023/06/22 09:37:20;;;;;;;16.20;7.75;;;36.30;8.20;;;;;;4950970;28;20200;-88
2023/06/22 09:39:48;;;;;;;14.75;7.65;;;36.40;8.00;;;;;;4969513;28;20211;-89
2023/06/22 09:42:17;;;;;;;14.77;7.80;;;36.10;8.70;;;;;;4948024;28;20285;-88
2023/06/22 09:44:44;;;;;;;15.60;8.15;;;36.10;8.00;;;;;;4972660;28;20208;-87
2023/06/22 09:47:11;;;;;;;19.92;8.80;;;35.80;9.00;;;;;;4949307;28;20236;-88
2023/06/22 09:49:43;;;;;;;15.48;8.50;;;35.40;11.00;;;;;;4963724;28;20649;-88
2023/06/22 09:52:11;;;;;;;17.42;8.90;;;35.60;10.20;;;;;;4962775;28;20200;-89
2023/06/22 09:54:38;;;;;;;14.68;8.43;;;36.10;9.30;;;;;;4972209;28;20207;-89
2023/06/22 09:57:05;;;;;;;14.50;8.63;;;36.70;8.40;;;;;;4951321;28;20216;-91
2023/06/22 09:59:34;;;;;;;15.38;9.63;;;36.60;8.50;;;;;;4963129;28;20203;-90
2023/06/22 10:02:01;;;;;;;19.45;9.25;;;36.10;7.70;;;;;;4948845;28;20282;-90
2023/06/22 10:04:28;;;;;;;14.68;8.68;;;36.00;10.00;;;;;;4963206;28;20208;-91
2023/06/22 10:06:55;;;;;;;17.20;8.80;;;36.20;9.20;;;;;;4951094;28;20200;-90
2023/06/22 10:09:22;;;;;;;16.52;9.30;;;36.30;8.40;;;;;;4970186;28;20204;-91
2023/06/22 10:11:49;;;;;;;19.02;9.20;;;36.30;8.60;;;;;;4966033;28;20653;-90
2023/06/22 10:14:16;;;;;;;16.65;9.73;;;36.40;8.50;;;;;;4965646;28;20200;-90
2023/06/22 10:19:25;;;;;;;16.05;9.23;;;36.70;7.40;;;;;;4963936;28;20233;-91
2023/06/22 10:21:53;;;;;;;15.50;9.48;;;37.60;6.30;;;;;;4952482;28;20227;-90
2023/06/22 10:24:20;;;;;;;16.77;9.77;;;37.80;5.60;;;;;;4958292;28;20205;-91
2023/06/22 10:26:47;;;;;;;12.43;8.63;;;37.20;7.70;;;;;;4962555;28;20208;-90
2023/06/22 10:29:14;;;;;;;15.65;8.80;;;37.00;7.70;;;;;;4968267;28;20709;-91
2023/06/22 10:31:41;;;;;;;15.45;9.27;;;37.40;5.80;;;;;;4970188;28;20668;-90
2023/06/22 10:34:09;;;;;;;18.65;9.30;;;37.20;7.20;;;;;;4968039;28;20216;-90
2023/06/22 10:36:36;;;;;;;14.10;8.93;;;37.20;7.40;;;;;;4962490;28;20209;-90
2023/06/22 10:39:03;;;;;;;14.18;8.77;;;37.00;8.00;;;;;;4969007;28;20271;-91
2023/06/22 10:41:30;;;;;;;16.50;9.43;;;37.60;6.60;;;;;;4968783;28;20206;-91
2023/06/22 10:43:57;;;;;;;17.35;9.10;;;37.60;6.80;;;;;;4963681;28;20605;-89
2023/06/22 10:46:25;;;;;;;17.10;8.75;;;37.20;6.20;;;;;;4950048;28;20208;-91
2023/06/22 10:48:54;;;;;;;18.42;8.65;;;38.00;4.90;;;;;;4952170;28;20229;-89
2023/06/22 10:51:23;;;;;;;16.70;9.02;;;37.70;6.10;;;;;;4957465;28;20204;-89
2023/06/22 10:53:50;;;;;;;17.83;8.55;;;37.20;6.50;;;;;;4963031;28;20200;-90
2023/06/22 10:56:18;;;;;;;17.52;8.63;;;38.00;4.40;;;;;;4961981;28;20197;-90
2023/06/22 10:58:46;;;;;;;21.08;8.90;;;38.10;4.70;;;;;;4962898;28;20209;-90
2023/06/22 11:01:13;;;;;;;15.68;7.70;;;37.40;5.70;;;;;;4954147;28;20215;-91
2023/06/22 11:03:40;;;;;;;12.95;7.90;;;37.60;5.90;;;;;;4967875;28;20204;-90
2023/06/22 11:06:07;;;;;;;17.05;7.97;;;37.70;6.60;;;;;;4967184;28;20199;-88
2023/06/22 11:08:35;;;;;;;16.48;8.23;;;37.20;6.10;;;;;;4966745;28;20219;-89
2023/06/22 11:11:02;;;;;;;22.17;8.20;;;37.10;5.90;;;;;;4966557;28;20275;-90
2023/06/22 11:13:29;;;;;;;13.40;7.75;;;36.70;7.00;;;;;;4968659;28;20595;-89
2023/06/22 11:15:56;;;;;;;17.92;7.95;;;36.10;8.10;;;;;;4968481;28;20197;-90
2023/06/22 11:18:23;;;;;;;15.27;7.80;;;35.50;7.80;;;;;;4965244;28;20216;-87
2023/06/22 11:20:50;;;;;;;16.35;8.05;;;35.20;9.00;;;;;;4953834;28;20820;-87
2023/06/22 11:23:17;;;;;;;18.50;8.05;;;35.20;9.60;;;;;;4963682;28;20216;-89
2023/06/22 11:25:46;;;;;;;17.35;7.32;;;35.20;9.60;;;;;;4963663;28;21051;-88
2023/06/22 11:28:14;;;;;;;18.45;7.13;;;35.10;9.30;;;;;;4954705;28;20692;-87
2023/06/22 11:30:40;;;;;;;14.65;7.30;;;34.90;9.50;;;;;;4965710;28;20215;-88
2023/06/22 11:33:08;;;;;;;18.67;7.90;;;34.80;9.40;;;;;;4964243;28;20220;-88
2023/06/22 11:35:35;;;;;;;19.13;8.10;;;34.80;11.00;;;;;;4965658;28;20196;-87
2023/06/22 11:38:03;;;;;;;18.58;7.85;;;35.00;9.50;;;;;;4953726;28;20208;-87
2023/06/22 11:40:30;;;;;;;16.45;7.00;;;35.00;11.80;;;;;;4970059;28;20196;-88
2023/06/22 11:42:58;;;;;;;16.77;7.75;;;35.20;10.20;;;;;;4968121;28;20587;-87
2023/06/22 11:45:25;;;;;;;18.42;7.63;;;35.30;10.20;;;;;;4962779;28;20200;-87
2023/06/22 11:47:52;;;;;;;13.95;7.07;;;35.50;10.60;;;;;;4955927;28;20223;-88
2023/06/22 11:50:19;;;;;;;18.42;8.40;;;35.50;9.80;;;;;;4949581;28;20241;-87
2023/06/22 11:52:46;;;;;;;18.67;7.57;;;35.30;10.90;;;;;;4971979;28;20196;-87
2023/06/22 11:55:13;;;;;;;19.45;7.70;;;35.20;10.00;;;;;;4962807;28;20208;-89
2023/06/22 11:57:54;;;;;;;18.52;8.07;;;35.30;9.60;;;;;;4965370;28;20207;-86
2023/06/22 12:00:24;;;;;;;20.90;8.52;;;34.90;10.20;;;;;;4967925;28;20250;-87
2023/06/22 12:02:52;;;;;;;19.35;8.23;;;34.80;10.90;;;;;;4964580;28;20211;-87
2023/06/22 12:05:20;;;;;;;21.75;8.15;;;34.90;11.50;;;;;;4972144;28;20212;-88
2023/06/22 12:07:47;;;;;;;14.55;7.80;;;35.10;11.00;;;;;;4969319;28;20212;-88
2023/06/22 12:10:14;;;;;;;17.27;8.00;;;35.00;10.50;;;;;;4972191;28;20212;-87
2023/06/22 12:12:41;;;;;;;18.52;8.55;;;35.10;10.50;;;;;;4974340;28;20203;-87
2023/06/22 12:15:08;;;;;;;15.90;8.13;;;34.90;11.10;;;;;;4967082;28;20578;-87
2023/06/22 12:17:37;;;;;;;15.75;7.97;;;34.80;11.10;;;;;;4966895;28;20236;-88
2023/06/22 12:20:05;;;;;;;17.88;8.57;;;34.60;11.10;;;;;;4973477;28;20208;-85
2023/06/22 12:22:32;;;;;;;18.67;8.13;;;34.60;11.00;;;;;;4965313;28;20236;-86
2023/06/22 12:24:59;;;;;;;21.55;8.35;;;34.90;10.90;;;;;;4950648;28;20208;-89
2023/06/22 12:27:26;;;;;;;16.77;7.93;;;35.10;10.90;;;;;;4969175;28;20208;-86
2023/06/22 12:29:53;;;;;;;15.07;7.78;;;35.40;10.40;;;;;;4951972;28;20310;-87
2023/06/22 12:32:20;;;;;;;17.10;7.68;;;35.60;9.40;;;;;;4971648;28;20204;-88
2023/06/22 12:34:48;;;;;;;18.05;7.63;;;35.50;9.80;;;;;;4970053;28;20223;-88
2023/06/22 12:37:15;;;;;;;16.38;7.50;;;35.30;10.80;;;;;;4965792;28;20200;-87
2023/06/22 12:39:42;;;;;;;17.77;8.07;;;35.30;10.80;;;;;;4963691;28;20565;-88
2023/06/22 12:42:11;;;;;;;18.45;7.63;;;35.20;10.80;;;;;;4964640;28;20559;-87
2023/06/22 12:44:39;;;;;;;12.50;7.15;;;35.20;10.30;;;;;;4949308;28;20287;-88
2023/06/22 12:47:06;;;;;;;16.30;7.60;;;35.20;10.80;;;;;;4969401;28;20212;-87